Time;durP1;ratioP1;P1;durP2;ratioP2;P2;SDS_P1;SDS_P2;PMS_P1;PMS_P2;Temp;Humidity;BMP_temperature;BMP_pressure;BME280_temperature;BME280_humidity;BME280_pressure;Samples;Min_cycle;Max_cycle;Signal;HPM_P1;HPM_P2
2023/05/06 00:01:41;;;;;;;131.80;35.65;;;10.10;99.90;;;;;;5053767;28;20102;-65
2023/05/06 00:04:07;;;;;;;174.20;36.50;;;10.10;99.90;;;;;;5054725;28;20464;-64
2023/05/06 00:06:32;;;;;;;110.65;34.17;;;10.10;99.90;;;;;;5054391;28;20035;-64
2023/05/06 00:08:58;;;;;;;62.38;30.85;;;10.00;99.90;;;;;;5054305;28;20017;-65
2023/05/06 00:11:25;;;;;;;113.00;35.08;;;10.10;99.90;;;;;;5054647;28;20029;-64
2023/05/06 00:13:50;;;;;;;150.80;37.28;;;10.10;99.90;;;;;;5052854;28;20086;-65
2023/05/06 00:16:16;;;;;;;183.63;40.13;;;10.20;99.90;;;;;;5054066;28;20437;-65
2023/05/06 00:18:41;;;;;;;507.35;56.10;;;10.30;99.90;;;;;;5054249;28;20047;-65
2023/05/06 00:21:07;;;;;;;77.85;35.55;;;10.30;99.90;;;;;;5053859;28;20033;-64
2023/05/06 00:23:32;;;;;;;169.65;39.17;;;10.30;99.90;;;;;;5054459;28;20029;-65
2023/05/06 00:25:58;;;;;;;112.55;37.35;;;10.40;99.90;;;;;;5054160;28;20068;-65
2023/05/06 00:28:23;;;;;;;117.97;35.55;;;10.40;99.90;;;;;;5054346;28;20025;-64
2023/05/06 00:30:49;;;;;;;151.70;37.05;;;10.40;99.90;;;;;;5054369;28;20348;-65
2023/05/06 00:33:15;;;;;;;51.72;30.92;;;10.40;99.90;;;;;;5053741;28;20029;-64
2023/05/06 00:35:40;;;;;;;196.23;38.95;;;10.40;99.90;;;;;;5053576;28;20049;-65
2023/05/06 00:38:08;;;;;;;75.40;34.88;;;10.40;99.90;;;;;;5054237;28;20032;-65
2023/05/06 00:40:34;;;;;;;70.20;32.17;;;10.40;99.90;;;;;;5052384;28;20542;-65
2023/05/06 00:42:59;;;;;;;100.63;34.17;;;10.40;99.90;;;;;;5054165;28;20025;-65
2023/05/06 00:45:25;;;;;;;109.70;35.78;;;10.40;99.90;;;;;;5054131;28;20078;-65
2023/05/06 00:47:51;;;;;;;172.95;36.33;;;10.40;99.90;;;;;;5053519;28;20064;-65
2023/05/06 00:50:17;;;;;;;189.23;39.20;;;10.40;99.90;;;;;;5054073;28;20028;-65
2023/05/06 00:52:43;;;;;;;81.53;35.13;;;10.40;99.90;;;;;;5053506;28;20039;-65
2023/05/06 00:55:09;;;;;;;308.25;43.60;;;10.40;99.90;;;;;;5053751;28;20029;-65
2023/05/06 00:57:34;;;;;;;341.55;44.65;;;10.40;99.90;;;;;;5053476;28;20040;-67
2023/05/06 01:00:00;;;;;;;212.93;39.17;;;10.40;99.90;;;;;;5053597;28;20048;-65
2023/05/06 01:02:26;;;;;;;273.38;41.67;;;10.40;99.90;;;;;;5053926;28;20029;-65
2023/05/06 01:04:54;;;;;;;93.80;34.22;;;10.40;99.90;;;;;;5053611;28;20028;-65
2023/05/06 01:07:29;;;;;;;119.40;34.42;;;10.50;99.90;;;;;;5053889;28;20352;-65
2023/05/06 01:10:12;;;;;;;281.35;42.30;;;10.40;99.90;;;;;;5053275;28;20025;-65
2023/05/06 01:13:07;;;;;;;145.53;37.33;;;10.50;99.90;;;;;;5053620;28;20493;-65
2023/05/06 01:15:40;;;;;;;232.93;39.45;;;10.50;99.90;;;;;;5053728;28;20291;-65
2023/05/06 01:18:12;;;;;;;153.88;37.15;;;10.50;99.90;;;;;;5053276;28;20029;-65
2023/05/06 01:20:40;;;;;;;284.75;42.08;;;10.50;99.90;;;;;;5051989;28;20041;-65
2023/05/06 01:23:10;;;;;;;140.85;37.15;;;10.50;99.90;;;;;;5052079;28;20398;-64
2023/05/06 01:25:35;;;;;;;260.50;40.53;;;10.50;99.90;;;;;;5052220;28;20025;-64
2023/05/06 01:28:01;;;;;;;292.42;42.28;;;10.50;99.90;;;;;;5053104;28;20429;-65
2023/05/06 01:30:33;;;;;;;205.10;39.95;;;10.50;99.90;;;;;;5053123;28;20463;-65
2023/05/06 01:33:06;;;;;;;222.35;40.22;;;10.50;99.90;;;;;;5053111;28;20029;-65
2023/05/06 01:36:01;;;;;;;400.73;49.05;;;10.40;99.90;;;;;;5053047;28;20025;-65
2023/05/06 01:38:35;;;;;;;143.90;38.33;;;10.40;99.90;;;;;;5052970;28;20364;-65
2023/05/06 01:41:01;;;;;;;67.00;33.60;;;10.40;99.90;;;;;;5053216;28;20032;-65
2023/05/06 01:43:31;;;;;;;207.25;40.97;;;10.40;99.90;;;;;;5053296;28;20487;-65
2023/05/06 01:45:59;;;;;;;202.30;40.63;;;10.40;99.90;;;;;;5052979;28;20561;-65
2023/05/06 01:48:28;;;;;;;277.23;42.53;;;10.40;99.90;;;;;;5052224;28;20028;-65
2023/05/06 01:50:54;;;;;;;541.10;53.90;;;10.40;99.90;;;;;;5053505;28;20417;-65
2023/05/06 01:53:20;;;;;;;464.27;51.53;;;10.40;99.90;;;;;;5053196;28;20086;-65
2023/05/06 01:55:47;;;;;;;198.20;42.22;;;10.50;99.90;;;;;;5052188;28;20036;-65
2023/05/06 01:58:13;;;;;;;77.13;33.70;;;10.50;99.90;;;;;;5051681;28;20122;-65
2023/05/06 02:00:39;;;;;;;474.73;50.35;;;10.60;99.90;;;;;;5052742;28;20081;-65
2023/05/06 02:03:04;;;;;;;98.05;37.42;;;10.50;99.90;;;;;;5053356;28;20025;-65
2023/05/06 02:05:30;;;;;;;378.58;47.97;;;10.50;99.90;;;;;;5052808;28;20374;-65
2023/05/06 02:07:55;;;;;;;168.20;40.38;;;10.60;99.90;;;;;;5053802;28;20032;-65
2023/05/06 02:10:21;;;;;;;404.20;50.40;;;10.60;99.90;;;;;;5056461;28;20104;-65
2023/05/06 02:12:47;;;;;;;369.73;50.90;;;10.60;99.90;;;;;;5056369;28;20471;-65
2023/05/06 02:15:13;;;;;;;362.50;50.15;;;10.60;99.90;;;;;;5056828;28;20029;-65
2023/05/06 02:17:38;;;;;;;367.80;51.53;;;10.60;99.90;;;;;;5056303;28;20031;-65
2023/05/06 02:20:04;;;;;;;332.60;50.38;;;10.60;99.90;;;;;;5056160;28;20501;-65
2023/05/06 02:22:30;;;;;;;211.10;46.47;;;10.60;99.90;;;;;;5056194;28;20031;-65
2023/05/06 02:24:56;;;;;;;150.85;43.03;;;10.60;99.90;;;;;;5056131;28;20437;-65
2023/05/06 02:27:21;;;;;;;141.18;45.03;;;10.60;99.90;;;;;;5056594;28;20024;-65
2023/05/06 02:29:47;;;;;;;220.32;49.83;;;10.60;99.90;;;;;;5056352;28;20047;-65
2023/05/06 02:32:13;;;;;;;108.53;43.35;;;10.60;99.90;;;;;;5055980;28;20029;-65
2023/05/06 02:34:38;;;;;;;158.13;44.03;;;10.70;99.90;;;;;;5055963;28;20030;-65
2023/05/06 02:37:04;;;;;;;137.63;43.95;;;10.70;99.90;;;;;;5056457;28;20025;-65
2023/05/06 02:39:29;;;;;;;204.48;47.25;;;10.70;99.90;;;;;;5055873;28;20029;-65
2023/05/06 02:41:55;;;;;;;120.82;41.92;;;10.70;99.90;;;;;;5056018;28;20032;-65
2023/05/06 02:44:20;;;;;;;109.82;42.00;;;10.70;99.90;;;;;;5055766;28;20494;-65
2023/05/06 02:46:46;;;;;;;313.58;50.75;;;10.70;99.90;;;;;;5056254;28;20025;-65
2023/05/06 02:49:11;;;;;;;235.85;46.40;;;10.70;99.90;;;;;;5055688;28;20036;-65
2023/05/06 02:51:37;;;;;;;170.82;46.03;;;10.70;99.90;;;;;;5056197;28;20025;-65
2023/05/06 02:54:02;;;;;;;115.05;43.40;;;10.70;99.90;;;;;;5056132;28;20071;-65
2023/05/06 02:56:28;;;;;;;150.15;45.08;;;10.70;99.90;;;;;;5055572;28;20025;-65
2023/05/06 02:58:53;;;;;;;210.70;47.55;;;10.70;99.90;;;;;;5055789;28;20025;-65
2023/05/06 03:01:20;;;;;;;263.23;47.88;;;10.80;99.90;;;;;;5054938;28;20049;-65
2023/05/06 03:03:45;;;;;;;175.45;46.53;;;10.80;99.90;;;;;;5055399;28;20021;-65
2023/05/06 03:06:11;;;;;;;268.77;50.28;;;10.70;99.90;;;;;;5055933;28;20036;-65
2023/05/06 03:08:36;;;;;;;132.25;45.15;;;10.70;99.90;;;;;;5055871;28;20053;-64
2023/05/06 03:11:02;;;;;;;172.82;46.10;;;10.80;99.90;;;;;;5055252;28;20059;-64
2023/05/06 03:13:27;;;;;;;261.13;49.55;;;10.80;99.90;;;;;;5055456;28;20090;-64
2023/05/06 03:15:53;;;;;;;134.25;42.60;;;10.80;99.90;;;;;;5055178;28;20029;-64
2023/05/06 03:18:19;;;;;;;277.95;47.65;;;10.80;99.90;;;;;;5055711;28;20471;-64
2023/05/06 03:20:46;;;;;;;242.82;45.72;;;10.70;99.90;;;;;;5053880;28;20099;-64
2023/05/06 03:23:12;;;;;;;156.95;44.70;;;10.60;99.90;;;;;;5055037;28;20025;-64
2023/05/06 03:25:37;;;;;;;176.32;43.00;;;10.60;99.90;;;;;;5055538;28;20108;-64
2023/05/06 03:28:04;;;;;;;190.57;42.60;;;10.70;99.90;;;;;;5054950;28;20025;-64
2023/05/06 03:30:29;;;;;;;407.55;52.13;;;10.70;99.90;;;;;;5055322;28;20031;-64
2023/05/06 03:32:56;;;;;;;275.67;49.25;;;10.70;99.90;;;;;;5054243;28;20029;-64
2023/05/06 03:35:21;;;;;;;617.65;60.33;;;10.70;99.90;;;;;;5054816;28;20029;-64
2023/05/06 03:37:47;;;;;;;471.70;58.47;;;10.60;99.90;;;;;;5054852;28;20032;-64
2023/05/06 03:40:12;;;;;;;420.45;55.33;;;10.60;99.90;;;;;;5055108;28;20025;-64
2023/05/06 03:42:38;;;;;;;472.10;58.83;;;10.60;99.90;;;;;;5054898;28;20102;-64
2023/05/06 03:45:05;;;;;;;502.20;59.75;;;10.60;99.90;;;;;;5055142;28;20106;-64
2023/05/06 03:47:31;;;;;;;425.13;56.50;;;10.60;99.90;;;;;;5054560;28;20032;-64
2023/05/06 03:49:56;;;;;;;468.15;58.25;;;10.60;99.90;;;;;;5054490;28;20376;-64
2023/05/06 03:52:22;;;;;;;250.63;48.50;;;10.70;99.90;;;;;;5054484;28;20427;-64
2023/05/06 03:54:48;;;;;;;299.75;51.40;;;10.70;99.90;;;;;;5054979;28;20028;-64
2023/05/06 03:57:14;;;;;;;538.55;58.58;;;10.70;99.90;;;;;;5054642;28;20390;-65
2023/05/06 03:59:39;;;;;;;521.72;57.28;;;10.70;99.90;;;;;;5054648;28;20135;-65
2023/05/06 04:02:05;;;;;;;548.50;54.10;;;10.70;99.90;;;;;;5054499;28;20036;-64
2023/05/06 04:04:30;;;;;;;706.95;65.72;;;10.60;99.90;;;;;;5054252;28;20096;-64
2023/05/06 04:06:56;;;;;;;629.90;60.78;;;10.60;99.90;;;;;;5054522;28;20056;-64
2023/05/06 04:09:21;;;;;;;173.90;42.05;;;10.60;99.90;;;;;;5054449;28;20035;-64
2023/05/06 04:11:47;;;;;;;428.30;51.28;;;10.70;99.90;;;;;;5054703;28;20032;-65
2023/05/06 04:14:13;;;;;;;282.48;48.88;;;10.70;99.90;;;;;;5053480;28;20040;-64
2023/05/06 04:16:38;;;;;;;454.85;56.80;;;10.70;99.90;;;;;;5054308;28;20025;-65
2023/05/06 04:19:04;;;;;;;488.98;56.85;;;10.80;99.90;;;;;;5054731;28;20033;-65
2023/05/06 04:21:30;;;;;;;486.52;56.80;;;10.70;99.90;;;;;;5053873;28;20021;-64
2023/05/06 04:23:55;;;;;;;606.83;63.40;;;10.70;99.90;;;;;;5054182;28;20028;-65
2023/05/06 04:26:21;;;;;;;304.13;46.92;;;10.70;99.90;;;;;;5054123;28;20029;-65
2023/05/06 04:28:46;;;;;;;319.00;48.42;;;10.80;99.90;;;;;;5054390;28;20055;-64
2023/05/06 04:31:13;;;;;;;405.98;54.60;;;10.80;99.90;;;;;;5053398;28;20500;-64
2023/05/06 04:33:39;;;;;;;519.78;55.33;;;10.80;99.90;;;;;;5052160;28;20025;-64
2023/05/06 04:36:05;;;;;;;273.08;44.67;;;10.80;99.90;;;;;;5053706;28;20115;-65
2023/05/06 04:38:31;;;;;;;240.95;44.08;;;10.70;99.90;;;;;;5054484;28;20033;-65
2023/05/06 04:40:57;;;;;;;347.20;49.80;;;10.70;99.90;;;;;;5053600;28;20051;-66
2023/05/06 04:43:23;;;;;;;296.40;45.28;;;10.70;99.90;;;;;;5053906;28;20033;-65
2023/05/06 04:45:49;;;;;;;227.57;40.88;;;10.70;99.90;;;;;;5054084;28;20025;-65
2023/05/06 04:48:17;;;;;;;362.65;49.28;;;10.70;99.90;;;;;;5053517;28;20082;-66
2023/05/06 04:50:42;;;;;;;344.73;46.85;;;10.70;99.90;;;;;;5053503;28;20386;-65
2023/05/06 04:53:08;;;;;;;348.95;47.42;;;10.80;99.90;;;;;;5052901;28;20033;-65
2023/05/06 04:55:34;;;;;;;364.63;48.90;;;10.80;99.90;;;;;;5053639;28;20025;-65
2023/05/06 04:57:59;;;;;;;387.40;48.15;;;10.80;99.90;;;;;;5053439;28;20459;-65
2023/05/06 05:00:26;;;;;;;324.58;47.35;;;10.80;99.90;;;;;;5053317;28;20044;-65
2023/05/06 05:02:51;;;;;;;329.48;50.42;;;10.90;99.90;;;;;;5053651;28;20025;-66
2023/05/06 05:05:17;;;;;;;344.85;51.10;;;10.90;99.90;;;;;;5053676;28;20029;-65
2023/05/06 05:07:43;;;;;;;560.47;59.90;;;10.90;99.90;;;;;;5054181;28;20398;-65
2023/05/06 05:10:09;;;;;;;467.65;49.90;;;10.90;99.90;;;;;;5053323;28;20021;-65
2023/05/06 05:12:35;;;;;;;338.63;45.55;;;10.90;99.90;;;;;;5053849;28;20075;-66
2023/05/06 05:15:00;;;;;;;315.35;45.17;;;10.90;99.90;;;;;;5053267;28;20025;-65
2023/05/06 05:17:26;;;;;;;230.75;41.85;;;10.90;99.90;;;;;;5052115;28;20017;-65
2023/05/06 05:19:51;;;;;;;449.08;50.10;;;10.90;99.90;;;;;;5053379;28;20029;-65
2023/05/06 05:22:17;;;;;;;304.77;45.80;;;11.00;99.90;;;;;;5053698;28;20036;-65
2023/05/06 05:24:43;;;;;;;262.63;41.90;;;11.10;99.90;;;;;;5053443;28;20032;-65
2023/05/06 05:27:09;;;;;;;353.30;47.22;;;11.20;99.90;;;;;;5053129;28;20064;-65
2023/05/06 05:29:35;;;;;;;316.20;44.92;;;11.20;99.90;;;;;;5053674;28;20417;-65
2023/05/06 05:32:01;;;;;;;326.88;44.90;;;11.10;99.90;;;;;;5053689;28;20033;-65
2023/05/06 05:34:26;;;;;;;393.00;47.15;;;11.10;99.90;;;;;;5053121;28;20029;-65
2023/05/06 05:36:52;;;;;;;442.48;48.03;;;11.10;99.90;;;;;;5052453;28;20029;-65
2023/05/06 05:39:17;;;;;;;187.02;40.38;;;11.10;99.90;;;;;;5053822;28;20111;-65
2023/05/06 05:41:43;;;;;;;411.83;51.22;;;11.20;99.90;;;;;;5053035;28;20025;-65
2023/05/06 05:44:08;;;;;;;461.30;51.80;;;11.20;99.90;;;;;;5056314;28;20367;-65
2023/05/06 05:46:34;;;;;;;292.50;48.50;;;11.20;99.90;;;;;;5056856;28;20029;-65
2023/05/06 05:49:00;;;;;;;293.45;48.33;;;11.20;99.90;;;;;;5057404;28;20025;-65
2023/05/06 05:51:25;;;;;;;489.92;53.88;;;11.30;99.90;;;;;;5057108;28;20029;-65
2023/05/06 05:53:51;;;;;;;346.05;50.05;;;11.30;99.90;;;;;;5057225;28;20039;-65
2023/05/06 05:56:17;;;;;;;305.33;50.05;;;11.30;99.90;;;;;;5056389;28;20044;-65
2023/05/06 05:58:42;;;;;;;500.63;56.13;;;11.50;99.90;;;;;;5055450;28;20025;-66
2023/05/06 06:01:08;;;;;;;368.30;51.65;;;11.40;99.90;;;;;;5056392;28;20049;-65
2023/05/06 06:03:33;;;;;;;447.75;54.55;;;11.40;99.90;;;;;;5056833;28;20025;-65
2023/05/06 06:06:00;;;;;;;420.02;55.08;;;11.50;99.90;;;;;;5057094;28;20036;-65
2023/05/06 06:08:25;;;;;;;366.70;53.38;;;11.50;99.90;;;;;;5057001;28;20067;-65
2023/05/06 06:10:51;;;;;;;386.27;51.55;;;11.60;99.90;;;;;;5056750;28;20068;-65
2023/05/06 06:13:16;;;;;;;477.45;59.08;;;11.60;99.90;;;;;;5056390;28;20025;-65
2023/05/06 06:15:42;;;;;;;286.70;48.10;;;11.60;99.90;;;;;;5056624;28;20029;-65
2023/05/06 06:18:08;;;;;;;520.10;54.55;;;11.60;99.90;;;;;;5056853;28;20528;-65
2023/05/06 06:20:34;;;;;;;363.38;51.92;;;11.60;99.90;;;;;;5056193;28;20024;-65
2023/05/06 06:23:00;;;;;;;343.05;50.60;;;11.60;99.90;;;;;;5056505;28;20470;-65
2023/05/06 06:25:26;;;;;;;480.95;55.15;;;11.70;99.90;;;;;;5056153;28;20036;-65
2023/05/06 06:27:53;;;;;;;515.78;56.63;;;11.60;99.90;;;;;;5056369;28;20032;-65
2023/05/06 06:30:18;;;;;;;336.42;56.03;;;11.70;99.90;;;;;;5056619;28;20047;-65
2023/05/06 06:32:49;;;;;;;372.77;54.10;;;11.80;99.90;;;;;;5056037;28;20017;-65
2023/05/06 06:35:15;;;;;;;301.15;52.80;;;11.80;99.90;;;;;;5054833;28;20032;-65
2023/05/06 06:37:41;;;;;;;194.80;49.13;;;11.80;99.90;;;;;;5055905;28;20100;-65
2023/05/06 06:40:07;;;;;;;191.50;48.55;;;11.90;99.90;;;;;;5056426;28;20029;-65
2023/05/06 06:42:33;;;;;;;165.40;47.00;;;12.00;99.90;;;;;;5056283;28;20043;-65
2023/05/06 06:44:58;;;;;;;162.38;46.92;;;12.00;99.90;;;;;;5056369;28;20100;-65
2023/05/06 06:47:24;;;;;;;158.00;46.50;;;11.90;99.90;;;;;;5055752;28;20017;-65
2023/05/06 06:49:49;;;;;;;207.35;49.90;;;12.00;99.90;;;;;;5055734;28;20519;-65
2023/05/06 06:52:15;;;;;;;218.68;50.00;;;12.10;99.90;;;;;;5056488;28;20037;-65
2023/05/06 06:54:40;;;;;;;251.82;49.33;;;12.20;99.90;;;;;;5056013;28;20036;-65
2023/05/06 06:57:06;;;;;;;157.23;49.53;;;12.20;99.90;;;;;;5055856;28;20064;-65
2023/05/06 06:59:31;;;;;;;151.55;49.13;;;12.40;99.90;;;;;;5055515;28;20436;-65
2023/05/06 07:01:57;;;;;;;154.90;50.85;;;12.40;99.90;;;;;;5054987;28;20037;-65
2023/05/06 07:04:24;;;;;;;166.20;50.03;;;12.50;99.90;;;;;;5055434;28;20021;-65
2023/05/06 07:06:50;;;;;;;145.32;51.15;;;12.50;99.90;;;;;;5055404;28;20021;-65
2023/05/06 07:09:16;;;;;;;134.43;49.35;;;12.60;99.90;;;;;;5055318;28;20048;-65
2023/05/06 07:11:41;;;;;;;124.00;47.97;;;12.70;99.90;;;;;;5055549;28;20037;-65
2023/05/06 07:14:07;;;;;;;113.18;45.75;;;13.20;99.90;;;;;;5055527;28;20104;-65
2023/05/06 07:16:32;;;;;;;98.72;42.50;;;13.50;99.90;;;;;;5055191;28;20467;-65
2023/05/06 07:18:59;;;;;;;94.78;43.95;;;13.70;99.90;;;;;;5055323;28;20029;-65
2023/05/06 07:21:24;;;;;;;91.45;44.67;;;13.90;99.90;;;;;;5055019;28;20438;-65
2023/05/06 07:23:50;;;;;;;87.32;46.00;;;14.20;99.90;;;;;;5055498;28;20056;-65
2023/05/06 07:26:15;;;;;;;79.68;42.80;;;14.60;99.90;;;;;;5055229;28;20024;-65
2023/05/06 07:28:41;;;;;;;73.72;42.05;;;15.00;99.90;;;;;;5054998;28;20020;-65
2023/05/06 07:31:06;;;;;;;62.22;37.25;;;15.80;99.90;;;;;;5055476;28;20021;-65
2023/05/06 07:33:32;;;;;;;60.60;36.30;;;17.10;98.90;;;;;;5054813;28;20395;-65
2023/05/06 07:35:57;;;;;;;65.68;38.65;;;17.60;1.00;;;;;;5055106;28;20111;-65
2023/05/06 07:38:23;;;;;;;58.53;36.20;;;18.00;1.00;;;;;;5055580;28;20359;-66
2023/05/06 07:40:50;;;;;;;51.60;33.72;;;19.20;1.00;;;;;;5054651;28;20025;-65
2023/05/06 07:43:16;;;;;;;43.78;31.52;;;19.90;1.00;;;;;;5053777;28;20017;-64
2023/05/06 07:45:41;;;;;;;42.50;30.90;;;20.50;1.00;;;;;;5054547;28;20040;-63
2023/05/06 07:48:07;;;;;;;41.13;31.52;;;20.80;1.00;;;;;;5054605;28;20031;-64
2023/05/06 07:50:33;;;;;;;38.92;30.17;;;20.80;1.00;;;;;;5055055;28;20017;-64
2023/05/06 07:52:59;;;;;;;40.75;31.23;;;20.90;1.00;;;;;;5054408;28;20394;-64
2023/05/06 07:55:24;;;;;;;41.03;31.88;;;21.80;99.90;;;;;;5054322;28;20029;-64
2023/05/06 07:57:50;;;;;;;40.03;30.60;;;22.00;99.90;;;;;;5054514;28;20032;-64
2023/05/06 08:00:16;;;;;;;40.20;30.25;;;22.30;99.90;;;;;;5054374;28;20056;-64
2023/05/06 08:02:43;;;;;;;40.28;30.15;;;21.80;1.00;;;;;;5055027;28;20494;-64
2023/05/06 08:05:09;;;;;;;39.35;31.23;;;22.00;52.20;;;;;;5053902;28;20017;-64
2023/05/06 08:07:36;;;;;;;37.67;30.30;;;22.10;99.90;;;;;;5053874;28;20021;-64
2023/05/06 08:10:02;;;;;;;36.40;29.85;;;23.10;99.90;;;;;;5053100;28;20021;-64
2023/05/06 08:12:27;;;;;;;37.85;30.67;;;23.00;1.00;;;;;;5054672;28;20036;-64
2023/05/06 08:14:54;;;;;;;35.53;29.17;;;23.00;1.00;;;;;;5054031;28;20025;-63
2023/05/06 08:17:19;;;;;;;32.40;26.05;;;23.00;1.00;;;;;;5054575;28;20083;-63
2023/05/06 08:19:45;;;;;;;33.45;26.85;;;23.00;99.90;;;;;;5053947;28;20028;-63
2023/05/06 08:22:11;;;;;;;38.58;29.13;;;23.60;1.00;;;;;;5053355;28;20430;-64
2023/05/06 08:24:36;;;;;;;33.40;28.92;;;23.70;10.50;;;;;;5053888;28;20021;-63
2023/05/06 08:27:03;;;;;;;34.08;28.58;;;24.00;99.90;;;;;;5053831;28;20027;-64
2023/05/06 08:29:29;;;;;;;30.83;27.42;;;23.40;1.00;;;;;;5053705;28;20021;-64
2023/05/06 08:31:54;;;;;;;34.88;28.75;;;23.70;99.90;;;;;;5053778;28;20028;-64
2023/05/06 08:34:21;;;;;;;32.95;27.85;;;23.80;99.90;;;;;;5053783;28;20088;-64
2023/05/06 08:36:47;;;;;;;34.97;27.88;;;23.60;99.90;;;;;;5053569;28;20065;-63
2023/05/06 08:39:13;;;;;;;30.27;25.75;;;23.80;71.70;;;;;;5053809;28;20036;-64
2023/05/06 08:41:40;;;;;;;29.20;26.10;;;24.70;99.90;;;;;;5053887;28;20029;-65
2023/05/06 08:44:07;;;;;;;28.60;23.75;;;23.60;1.00;;;;;;5052657;28;20025;-63
2023/05/06 08:46:33;;;;;;;26.05;23.20;;;24.00;1.00;;;;;;5054199;28;20029;-63
2023/05/06 08:48:59;;;;;;;26.52;22.90;;;24.30;1.00;;;;;;5053579;28;20025;-63
2023/05/06 08:51:28;;;;;;;25.15;20.60;;;24.20;1.00;;;;;;5052729;28;20108;-63
2023/05/06 08:54:02;;;;;;;21.50;19.15;;;24.80;99.90;;;;;;5052807;28;20025;-63
2023/05/06 08:56:31;;;;;;;21.35;17.50;;;24.60;1.00;;;;;;5052416;28;20037;-63
2023/05/06 08:58:57;;;;;;;20.90;18.55;;;24.60;99.90;;;;;;5052961;28;20025;-63
2023/05/06 09:01:28;;;;;;;20.55;17.20;;;24.00;99.90;;;;;;5052983;28;20453;-65
2023/05/06 09:03:56;;;;;;;18.75;16.25;;;23.70;99.90;;;;;;5052408;28;20043;-64
2023/05/06 09:06:23;;;;;;;20.30;17.42;;;23.50;99.90;;;;;;5052380;28;20467;-64
2023/05/06 09:08:48;;;;;;;19.73;16.92;;;24.80;99.90;;;;;;5053466;28;20024;-64
2023/05/06 09:11:25;;;;;;;20.00;16.85;;;24.50;99.90;;;;;;5052803;28;20087;-64
2023/05/06 09:14:06;;;;;;;17.73;15.00;;;24.30;99.90;;;;;;5053481;28;20025;-64
2023/05/06 09:16:32;;;;;;;17.80;15.77;;;24.80;99.90;;;;;;5052592;28;20099;-64
2023/05/06 09:18:58;;;;;;;18.15;13.57;;;25.80;99.90;;;;;;5057598;28;20032;-64
2023/05/06 09:21:41;;;;;;;13.93;12.43;;;24.70;99.90;;;;;;5057055;28;20094;-64
2023/05/06 09:24:08;;;;;;;15.77;14.18;;;26.10;95.30;;;;;;5057427;28;20434;-64
2023/05/06 09:26:36;;;;;;;15.65;13.68;;;25.40;78.80;;;;;;5056762;28;20021;-63
2023/05/06 09:29:03;;;;;;;14.38;12.48;;;24.50;99.90;;;;;;5057641;28;20068;-64
2023/05/06 09:31:29;;;;;;;13.57;12.13;;;24.20;99.90;;;;;;5056492;28;20029;-64
2023/05/06 09:33:56;;;;;;;14.20;12.70;;;23.70;99.90;;;;;;5057618;28;20029;-65
2023/05/06 09:36:23;;;;;;;13.52;11.68;;;23.70;99.90;;;;;;5055783;28;20036;-64
2023/05/06 09:38:49;;;;;;;18.73;13.05;;;24.60;99.90;;;;;;5057456;28;20033;-64
2023/05/06 09:41:20;;;;;;;13.75;11.48;;;25.30;99.90;;;;;;5056987;28;20032;-64
2023/05/06 09:43:47;;;;;;;11.75;10.52;;;24.90;35.00;;;;;;5055816;28;20047;-64
2023/05/06 09:46:14;;;;;;;11.27;10.07;;;24.20;99.90;;;;;;5056954;28;20021;-64
2023/05/06 09:48:40;;;;;;;15.70;12.98;;;24.20;99.90;;;;;;5055806;28;20021;-64
2023/05/06 09:51:06;;;;;;;14.35;12.20;;;24.50;99.90;;;;;;5056988;28;20036;-64
2023/05/06 09:53:36;;;;;;;15.00;12.05;;;24.70;99.90;;;;;;5056858;28;20059;-64
2023/05/06 09:56:06;;;;;;;15.38;13.35;;;25.10;99.90;;;;;;5055996;28;20430;-64
2023/05/06 09:58:33;;;;;;;14.18;10.85;;;25.90;28.10;;;;;;5056730;28;20037;-64
2023/05/06 10:01:00;;;;;;;10.85;9.68;;;25.40;76.40;;;;;;5055045;28;20125;-64
2023/05/06 10:03:26;;;;;;;10.15;9.15;;;24.90;7.20;;;;;;5056653;28;20025;-64
2023/05/06 10:05:53;;;;;;;12.82;8.98;;;24.30;5.60;;;;;;5056650;28;20027;-65
2023/05/06 10:08:21;;;;;;;10.93;9.80;;;23.90;99.90;;;;;;5055939;28;20078;-64
2023/05/06 10:10:48;;;;;;;14.45;11.05;;;23.60;97.70;;;;;;5056061;28;20177;-64
2023/05/06 10:13:14;;;;;;;14.73;9.65;;;23.20;99.90;;;;;;5056771;28;20029;-64
2023/05/06 10:15:44;;;;;;;10.98;8.45;;;24.70;99.90;;;;;;5057001;28;20029;-64
2023/05/06 10:18:10;;;;;;;10.02;8.38;;;25.60;99.90;;;;;;5055287;28;20029;-64
2023/05/06 10:20:37;;;;;;;11.05;8.85;;;25.80;1.00;;;;;;5056766;28;20027;-64
2023/05/06 10:23:16;;;;;;;10.10;8.15;;;25.30;1.00;;;;;;5056585;28;20025;-64
2023/05/06 10:25:43;;;;;;;12.75;8.57;;;24.90;84.20;;;;;;5055886;28;20130;-64
2023/05/06 10:28:10;;;;;;;11.02;9.02;;;25.10;90.00;;;;;;5055917;28;20372;-64
2023/05/06 10:30:37;;;;;;;9.75;7.78;;;25.20;10.80;;;;;;5055124;28;20027;-64
2023/05/06 10:33:06;;;;;;;9.73;7.88;;;25.30;66.80;;;;;;5055249;28;20083;-64
2023/05/06 10:38:29;;;;;;;10.90;7.57;;;24.70;99.90;;;;;;5091619;27;20790;-65
2023/05/06 10:40:55;;;;;;;8.18;6.82;;;25.00;1.00;;;;;;5091667;28;20126;-65
2023/05/06 10:43:42;;;;;;;12.10;7.50;;;24.90;1.00;;;;;;5089892;28;20474;-65
2023/05/06 10:46:18;;;;;;;8.77;7.88;;;25.00;1.00;;;;;;5091703;28;20028;-65
2023/05/06 10:49:09;;;;;;;15.55;8.15;;;24.30;1.00;;;;;;5090636;28;20036;-65
2023/05/06 10:51:39;;;;;;;11.35;7.78;;;23.40;99.90;;;;;;5090395;28;20035;-65
2023/05/06 10:54:07;;;;;;;8.13;7.22;;;22.80;99.90;;;;;;5090886;28;20471;-65
2023/05/06 10:56:36;;;;;;;8.63;6.93;;;22.40;99.90;;;;;;5089981;28;20024;-65
2023/05/06 10:59:08;;;;;;;9.18;7.03;;;22.70;99.90;;;;;;5089876;28;20027;-65
2023/05/06 11:01:35;;;;;;;9.82;6.88;;;23.30;99.90;;;;;;5090913;28;20016;-65
2023/05/06 11:04:18;;;;;;;7.13;5.90;;;23.30;99.90;;;;;;5090660;28;20028;-65
2023/05/06 11:06:46;;;;;;;6.97;5.60;;;23.60;99.90;;;;;;5090608;28;20032;-65
2023/05/06 11:09:27;;;;;;;7.78;6.15;;;23.20;99.90;;;;;;5089674;28;20029;-65
2023/05/06 11:12:01;;;;;;;9.88;6.50;;;22.90;83.00;;;;;;5091021;28;20028;-65
2023/05/06 11:14:35;;;;;;;10.45;6.43;;;22.40;99.90;;;;;;5090342;28;20442;-65
2023/05/06 11:17:05;;;;;;;7.38;5.43;;;22.20;99.90;;;;;;5090275;28;20522;-65
2023/05/06 11:19:34;;;;;;;8.32;5.63;;;22.90;99.90;;;;;;5090561;28;20073;-65
2023/05/06 11:22:02;;;;;;;8.32;5.35;;;23.20;99.90;;;;;;5090504;28;20390;-65
2023/05/06 11:24:38;;;;;;;8.07;5.32;;;23.10;21.10;;;;;;5089208;28;20069;-65
2023/05/06 11:27:04;;;;;;;7.90;5.72;;;23.20;44.80;;;;;;5090264;28;20385;-65
2023/05/06 11:29:31;;;;;;;6.90;6.05;;;23.20;42.00;;;;;;5090515;28;20029;-65
2023/05/06 11:31:57;;;;;;;8.45;5.35;;;22.90;34.90;;;;;;5090108;28;20027;-65
2023/05/06 11:34:25;;;;;;;7.95;5.70;;;22.70;17.30;;;;;;5090628;28;20429;-65
2023/05/06 11:37:01;;;;;;;6.82;5.10;;;22.90;1.30;;;;;;5089555;28;20097;-65
2023/05/06 11:39:29;;;;;;;7.60;4.40;;;23.10;8.90;;;;;;5090121;28;20115;-65
2023/05/06 11:41:57;;;;;;;5.88;4.13;;;23.30;33.00;;;;;;5088738;28;20157;-65
2023/05/06 11:44:31;;;;;;;7.47;5.07;;;23.40;99.90;;;;;;5069531;28;20381;-65
2023/05/06 11:46:59;;;;;;;7.78;5.13;;;23.40;1.00;;;;;;5068925;28;20518;-65
2023/05/06 11:49:26;;;;;;;8.43;5.45;;;22.90;1.00;;;;;;5057529;28;20033;-65
2023/05/06 11:51:52;;;;;;;4.80;4.13;;;22.70;1.20;;;;;;5056513;28;20505;-65
2023/05/06 11:54:21;;;;;;;6.72;4.45;;;23.20;59.10;;;;;;5056884;28;20029;-65
2023/05/06 11:56:52;;;;;;;6.95;4.90;;;23.40;1.00;;;;;;5056610;28;20041;-65
2023/05/06 11:59:27;;;;;;;6.03;4.93;;;23.70;1.00;;;;;;5056351;28;20017;-65
2023/05/06 12:01:53;;;;;;;5.25;4.43;;;23.60;1.00;;;;;;5056309;28;20100;-65
2023/05/06 12:04:18;;;;;;;6.18;4.90;;;23.70;1.00;;;;;;5056579;28;20067;-65
2023/05/06 12:06:44;;;;;;;6.38;4.50;;;23.90;1.00;;;;;;5055885;28;20025;-65
2023/05/06 12:09:14;;;;;;;5.35;3.83;;;23.10;1.00;;;;;;5056184;28;20163;-65
2023/05/06 12:11:41;;;;;;;7.88;4.25;;;23.30;1.00;;;;;;5055839;28;20082;-65
2023/05/06 12:14:08;;;;;;;5.47;3.83;;;23.00;1.00;;;;;;5055960;28;20028;-65
2023/05/06 12:16:35;;;;;;;6.38;3.83;;;22.90;1.00;;;;;;5056080;28;20029;-65
2023/05/06 12:19:01;;;;;;;4.47;3.47;;;23.00;1.00;;;;;;5055741;28;20032;-65
2023/05/06 12:21:27;;;;;;;4.18;3.40;;;23.30;1.00;;;;;;5056283;28;20114;-65
2023/05/06 12:23:56;;;;;;;4.65;3.53;;;23.40;1.00;;;;;;5055954;28;20079;-65
2023/05/06 12:26:22;;;;;;;4.22;3.22;;;23.30;1.00;;;;;;5054963;28;20400;-65
2023/05/06 12:29:04;;;;;;;5.90;3.47;;;23.10;1.00;;;;;;5055603;28;20029;-65